sensor_id;sensor_type;location;lat;lon;timestamp;temperature;humidity
40932;DHT22;36257;46.052;12.540;2022-10-31T00:01:28;14.50;94.20
40932;DHT22;36257;46.052;12.540;2022-10-31T00:03:54;14.50;94.40
40932;DHT22;36257;46.052;12.540;2022-10-31T00:06:21;14.50;94.50
40932;DHT22;36257;46.052;12.540;2022-10-31T00:08:55;14.40;94.50
40932;DHT22;36257;46.052;12.540;2022-10-31T00:11:21;14.40;94.70
40932;DHT22;36257;46.052;12.540;2022-10-31T00:13:47;14.50;94.50
40932;DHT22;36257;46.052;12.540;2022-10-31T00:16:18;14.50;94.50
40932;DHT22;36257;46.052;12.540;2022-10-31T00:18:47;14.50;94.50
40932;DHT22;36257;46.052;12.540;2022-10-31T00:21:12;14.50;94.40
40932;DHT22;36257;46.052;12.540;2022-10-31T00:23:38;14.60;94.10
40932;DHT22;36257;46.052;12.540;2022-10-31T00:26:04;14.60;93.90
40932;DHT22;36257;46.052;12.540;2022-10-31T00:28:31;14.60;93.80
40932;DHT22;36257;46.052;12.540;2022-10-31T00:31:01;14.60;93.60
40932;DHT22;36257;46.052;12.540;2022-10-31T00:33:27;14.70;93.30
40932;DHT22;36257;46.052;12.540;2022-10-31T00:35:53;14.70;93.10
40932;DHT22;36257;46.052;12.540;2022-10-31T00:38:19;14.60;93.40
40932;DHT22;36257;46.052;12.540;2022-10-31T00:40:44;14.60;93.30
40932;DHT22;36257;46.052;12.540;2022-10-31T00:43:10;14.70;93.30
40932;DHT22;36257;46.052;12.540;2022-10-31T00:45:35;14.60;93.40
40932;DHT22;36257;46.052;12.540;2022-10-31T00:48:01;14.60;93.10
40932;DHT22;36257;46.052;12.540;2022-10-31T00:50:27;14.70;92.90
40932;DHT22;36257;46.052;12.540;2022-10-31T00:52:52;14.70;92.60
40932;DHT22;36257;46.052;12.540;2022-10-31T00:55:18;14.70;92.30
40932;DHT22;36257;46.052;12.540;2022-10-31T00:57:46;14.70;92.30
40932;DHT22;36257;46.052;12.540;2022-10-31T01:00:13;14.70;92.10
40932;DHT22;36257;46.052;12.540;2022-10-31T01:02:38;14.80;92.00
40932;DHT22;36257;46.052;12.540;2022-10-31T01:05:04;14.80;91.40
40932;DHT22;36257;46.052;12.540;2022-10-31T01:07:30;14.80;91.50
40932;DHT22;36257;46.052;12.540;2022-10-31T01:09:55;14.90;91.50
40932;DHT22;36257;46.052;12.540;2022-10-31T01:12:21;14.80;91.80
40932;DHT22;36257;46.052;12.540;2022-10-31T01:14:46;14.70;92.10
40932;DHT22;36257;46.052;12.540;2022-10-31T01:17:13;14.70;92.40
40932;DHT22;36257;46.052;12.540;2022-10-31T01:19:39;14.60;92.60
40932;DHT22;36257;46.052;12.540;2022-10-31T01:22:05;14.50;93.10
40932;DHT22;36257;46.052;12.540;2022-10-31T01:24:31;14.40;93.70
40932;DHT22;36257;46.052;12.540;2022-10-31T01:26:56;14.20;94.50
40932;DHT22;36257;46.052;12.540;2022-10-31T01:29:22;14.10;95.30
40932;DHT22;36257;46.052;12.540;2022-10-31T01:31:48;14.00;95.80
40932;DHT22;36257;46.052;12.540;2022-10-31T01:34:15;13.90;95.90
40932;DHT22;36257;46.052;12.540;2022-10-31T01:36:41;13.90;95.70
40932;DHT22;36257;46.052;12.540;2022-10-31T01:39:12;14.00;95.40
40932;DHT22;36257;46.052;12.540;2022-10-31T01:41:42;14.00;95.20
40932;DHT22;36257;46.052;12.540;2022-10-31T01:46:48;14.10;94.80
40932;DHT22;36257;46.052;12.540;2022-10-31T01:51:49;14.10;94.90
40932;DHT22;36257;46.052;12.540;2022-10-31T01:54:20;14.00;94.90
40932;DHT22;36257;46.052;12.540;2022-10-31T01:56:49;14.10;95.00
40932;DHT22;36257;46.052;12.540;2022-10-31T01:59:17;14.10;95.00
40932;DHT22;36257;46.052;12.540;2022-10-31T02:01:46;14.00;95.00
40932;DHT22;36257;46.052;12.540;2022-10-31T02:04:12;14.00;95.30
40932;DHT22;36257;46.052;12.540;2022-10-31T02:06:48;13.90;95.40
40932;DHT22;36257;46.052;12.540;2022-10-31T02:09:16;13.80;95.90
40932;DHT22;36257;46.052;12.540;2022-10-31T02:11:43;13.70;96.20
40932;DHT22;36257;46.052;12.540;2022-10-31T02:14:09;13.70;96.50
40932;DHT22;36257;46.052;12.540;2022-10-31T02:16:35;13.70;96.40
40932;DHT22;36257;46.052;12.540;2022-10-31T02:19:00;13.70;96.30
40932;DHT22;36257;46.052;12.540;2022-10-31T02:27:07;13.80;96.10
40932;DHT22;36257;46.052;12.540;2022-10-31T02:29:55;13.70;96.20
40932;DHT22;36257;46.052;12.540;2022-10-31T02:46:32;13.60;97.30
40932;DHT22;36257;46.052;12.540;2022-10-31T02:49:05;13.60;97.80
40932;DHT22;36257;46.052;12.540;2022-10-31T02:51:33;13.50;98.60
40932;DHT22;36257;46.052;12.540;2022-10-31T02:53:59;13.50;98.50
40932;DHT22;36257;46.052;12.540;2022-10-31T02:56:24;13.40;98.10
40932;DHT22;36257;46.052;12.540;2022-10-31T02:59:02;13.40;98.10
40932;DHT22;36257;46.052;12.540;2022-10-31T03:07:00;13.40;97.80
40932;DHT22;36257;46.052;12.540;2022-10-31T03:12:55;13.40;97.60
40932;DHT22;36257;46.052;12.540;2022-10-31T03:15:34;13.40;97.70
40932;DHT22;36257;46.052;12.540;2022-10-31T03:18:24;13.50;97.80
40932;DHT22;36257;46.052;12.540;2022-10-31T03:23:45;13.50;98.00
40932;DHT22;36257;46.052;12.540;2022-10-31T03:26:12;13.60;98.30
40932;DHT22;36257;46.052;12.540;2022-10-31T03:28:57;13.60;97.80
40932;DHT22;36257;46.052;12.540;2022-10-31T03:31:28;13.60;97.60
40932;DHT22;36257;46.052;12.540;2022-10-31T03:33:58;13.60;97.20
40932;DHT22;36257;46.052;12.540;2022-10-31T03:36:26;13.60;97.00
40932;DHT22;36257;46.052;12.540;2022-10-31T03:38:52;13.70;97.10
40932;DHT22;36257;46.052;12.540;2022-10-31T03:41:23;13.70;97.40
40932;DHT22;36257;46.052;12.540;2022-10-31T03:43:57;13.70;97.40
40932;DHT22;36257;46.052;12.540;2022-10-31T03:46:24;13.70;97.30
40932;DHT22;36257;46.052;12.540;2022-10-31T03:48:50;13.70;97.10
40932;DHT22;36257;46.052;12.540;2022-10-31T03:54:25;13.70;96.70
40932;DHT22;36257;46.052;12.540;2022-10-31T03:57:08;13.70;96.70
40932;DHT22;36257;46.052;12.540;2022-10-31T03:59:40;13.70;96.80
40932;DHT22;36257;46.052;12.540;2022-10-31T04:02:13;13.60;96.90
40932;DHT22;36257;46.052;12.540;2022-10-31T04:04:40;13.60;97.20
40932;DHT22;36257;46.052;12.540;2022-10-31T04:07:06;13.60;97.40
40932;DHT22;36257;46.052;12.540;2022-10-31T04:09:35;13.60;97.20
40932;DHT22;36257;46.052;12.540;2022-10-31T04:12:03;13.60;97.00
40932;DHT22;36257;46.052;12.540;2022-10-31T04:14:32;13.70;97.20
40932;DHT22;36257;46.052;12.540;2022-10-31T04:16:59;13.60;97.20
40932;DHT22;36257;46.052;12.540;2022-10-31T04:19:26;13.60;96.70
40932;DHT22;36257;46.052;12.540;2022-10-31T04:21:52;13.60;96.70
40932;DHT22;36257;46.052;12.540;2022-10-31T04:24:17;13.70;96.40
40932;DHT22;36257;46.052;12.540;2022-10-31T04:26:43;13.70;96.20
40932;DHT22;36257;46.052;12.540;2022-10-31T04:29:09;13.70;96.10
40932;DHT22;36257;46.052;12.540;2022-10-31T04:31:34;13.70;96.20
40932;DHT22;36257;46.052;12.540;2022-10-31T04:34:00;13.70;96.20
40932;DHT22;36257;46.052;12.540;2022-10-31T04:36:25;13.70;96.10
40932;DHT22;36257;46.052;12.540;2022-10-31T04:38:51;13.70;96.20
40932;DHT22;36257;46.052;12.540;2022-10-31T04:41:17;13.70;96.10
40932;DHT22;36257;46.052;12.540;2022-10-31T04:43:42;13.60;96.20
40932;DHT22;36257;46.052;12.540;2022-10-31T04:46:08;13.60;96.10
40932;DHT22;36257;46.052;12.540;2022-10-31T04:48:33;13.50;96.10
40932;DHT22;36257;46.052;12.540;2022-10-31T04:51:03;13.50;96.10
40932;DHT22;36257;46.052;12.540;2022-10-31T04:53:28;13.50;96.30
40932;DHT22;36257;46.052;12.540;2022-10-31T04:55:54;13.50;96.40
40932;DHT22;36257;46.052;12.540;2022-10-31T04:58:20;13.60;96.20
40932;DHT22;36257;46.052;12.540;2022-10-31T05:00:45;13.60;96.20
40932;DHT22;36257;46.052;12.540;2022-10-31T05:03:11;13.60;96.00
40932;DHT22;36257;46.052;12.540;2022-10-31T05:05:37;13.50;96.10
40932;DHT22;36257;46.052;12.540;2022-10-31T05:08:03;13.40;96.50
40932;DHT22;36257;46.052;12.540;2022-10-31T05:10:29;13.40;96.50
40932;DHT22;36257;46.052;12.540;2022-10-31T05:12:58;13.40;96.60
40932;DHT22;36257;46.052;12.540;2022-10-31T05:15:25;13.40;96.60
40932;DHT22;36257;46.052;12.540;2022-10-31T05:17:52;13.40;96.80
40932;DHT22;36257;46.052;12.540;2022-10-31T05:20:21;13.20;97.20
40932;DHT22;36257;46.052;12.540;2022-10-31T05:22:49;13.10;97.70
40932;DHT22;36257;46.052;12.540;2022-10-31T05:25:16;13.00;98.20
40932;DHT22;36257;46.052;12.540;2022-10-31T05:27:43;12.90;98.50
40932;DHT22;36257;46.052;12.540;2022-10-31T05:30:11;12.80;98.90
40932;DHT22;36257;46.052;12.540;2022-10-31T05:32:42;12.80;99.30
40932;DHT22;36257;46.052;12.540;2022-10-31T05:35:11;12.70;99.40
40932;DHT22;36257;46.052;12.540;2022-10-31T05:37:37;12.70;99.60
40932;DHT22;36257;46.052;12.540;2022-10-31T05:40:04;12.70;99.20
40932;DHT22;36257;46.052;12.540;2022-10-31T05:42:30;12.80;99.10
40932;DHT22;36257;46.052;12.540;2022-10-31T05:44:56;12.80;99.00
40932;DHT22;36257;46.052;12.540;2022-10-31T05:47:21;12.90;98.90
40932;DHT22;36257;46.052;12.540;2022-10-31T05:49:47;12.90;99.00
40932;DHT22;36257;46.052;12.540;2022-10-31T05:52:13;13.00;98.50
40932;DHT22;36257;46.052;12.540;2022-10-31T05:54:39;13.00;98.20
40932;DHT22;36257;46.052;12.540;2022-10-31T05:57:05;13.00;98.20
40932;DHT22;36257;46.052;12.540;2022-10-31T05:59:30;13.00;98.20
40932;DHT22;36257;46.052;12.540;2022-10-31T06:01:56;13.00;98.10
40932;DHT22;36257;46.052;12.540;2022-10-31T06:04:22;13.10;98.00
40932;DHT22;36257;46.052;12.540;2022-10-31T06:06:47;13.10;98.00
40932;DHT22;36257;46.052;12.540;2022-10-31T06:09:13;13.10;97.90
40932;DHT22;36257;46.052;12.540;2022-10-31T06:11:38;13.20;97.60
40932;DHT22;36257;46.052;12.540;2022-10-31T06:14:05;13.20;97.70
40932;DHT22;36257;46.052;12.540;2022-10-31T06:16:31;13.20;97.80
40932;DHT22;36257;46.052;12.540;2022-10-31T06:18:56;13.20;97.90
40932;DHT22;36257;46.052;12.540;2022-10-31T06:21:22;13.20;98.10
40932;DHT22;36257;46.052;12.540;2022-10-31T06:23:48;13.20;98.40
40932;DHT22;36257;46.052;12.540;2022-10-31T06:26:13;13.20;98.70
40932;DHT22;36257;46.052;12.540;2022-10-31T06:28:39;13.20;99.10
40932;DHT22;36257;46.052;12.540;2022-10-31T06:31:04;13.20;99.60
40932;DHT22;36257;46.052;12.540;2022-10-31T06:33:30;13.20;99.90
40932;DHT22;36257;46.052;12.540;2022-10-31T06:35:56;13.20;99.90
40932;DHT22;36257;46.052;12.540;2022-10-31T06:38:21;13.30;99.90
40932;DHT22;36257;46.052;12.540;2022-10-31T06:40:47;13.40;99.90
40932;DHT22;36257;46.052;12.540;2022-10-31T06:43:13;13.50;99.90
40932;DHT22;36257;46.052;12.540;2022-10-31T06:45:40;13.60;99.80
40932;DHT22;36257;46.052;12.540;2022-10-31T06:48:06;13.70;99.50
40932;DHT22;36257;46.052;12.540;2022-10-31T06:50:31;13.80;99.50
40932;DHT22;36257;46.052;12.540;2022-10-31T06:52:58;13.90;99.60
40932;DHT22;36257;46.052;12.540;2022-10-31T06:55:24;14.10;99.50
40932;DHT22;36257;46.052;12.540;2022-10-31T06:57:58;14.20;99.40
40932;DHT22;36257;46.052;12.540;2022-10-31T07:00:25;14.30;99.30
40932;DHT22;36257;46.052;12.540;2022-10-31T07:05:19;14.60;99.10
40932;DHT22;36257;46.052;12.540;2022-10-31T07:07:45;14.70;99.00
40932;DHT22;36257;46.052;12.540;2022-10-31T07:10:11;14.80;99.10
40932;DHT22;36257;46.052;12.540;2022-10-31T07:12:36;15.00;98.80
40932;DHT22;36257;46.052;12.540;2022-10-31T07:15:02;15.10;98.50
40932;DHT22;36257;46.052;12.540;2022-10-31T07:17:28;15.30;98.00
40932;DHT22;36257;46.052;12.540;2022-10-31T07:19:54;15.40;97.50
40932;DHT22;36257;46.052;12.540;2022-10-31T07:22:19;15.60;97.40
40932;DHT22;36257;46.052;12.540;2022-10-31T07:24:45;15.80;97.30
40932;DHT22;36257;46.052;12.540;2022-10-31T07:27:10;16.10;97.50
40932;DHT22;36257;46.052;12.540;2022-10-31T07:29:36;16.30;97.20
40932;DHT22;36257;46.052;12.540;2022-10-31T07:32:01;16.50;96.90
40932;DHT22;36257;46.052;12.540;2022-10-31T07:34:27;16.80;96.50
40932;DHT22;36257;46.052;12.540;2022-10-31T07:36:53;17.00;96.50
40932;DHT22;36257;46.052;12.540;2022-10-31T07:39:18;17.30;96.80
40932;DHT22;36257;46.052;12.540;2022-10-31T07:41:44;17.70;96.00
40932;DHT22;36257;46.052;12.540;2022-10-31T07:44:09;18.00;95.30
40932;DHT22;36257;46.052;12.540;2022-10-31T07:46:35;18.20;94.40
40932;DHT22;36257;46.052;12.540;2022-10-31T07:49:01;18.40;93.70
40932;DHT22;36257;46.052;12.540;2022-10-31T07:51:26;18.60;92.30
40932;DHT22;36257;46.052;12.540;2022-10-31T07:53:52;18.80;91.00
40932;DHT22;36257;46.052;12.540;2022-10-31T07:56:17;19.00;91.10
40932;DHT22;36257;46.052;12.540;2022-10-31T07:58:43;19.20;90.30
40932;DHT22;36257;46.052;12.540;2022-10-31T08:01:09;19.40;90.10
40932;DHT22;36257;46.052;12.540;2022-10-31T08:03:34;19.50;89.50
40932;DHT22;36257;46.052;12.540;2022-10-31T08:06:00;19.70;89.70
40932;DHT22;36257;46.052;12.540;2022-10-31T08:08:25;19.80;88.90
40932;DHT22;36257;46.052;12.540;2022-10-31T08:10:53;20.00;88.60
40932;DHT22;36257;46.052;12.540;2022-10-31T08:13:19;20.10;87.30
40932;DHT22;36257;46.052;12.540;2022-10-31T08:15:45;20.20;87.90
40932;DHT22;36257;46.052;12.540;2022-10-31T08:18:15;20.40;87.40
40932;DHT22;36257;46.052;12.540;2022-10-31T08:20:42;20.50;86.40
40932;DHT22;36257;46.052;12.540;2022-10-31T08:23:09;20.50;86.80
40932;DHT22;36257;46.052;12.540;2022-10-31T08:25:35;20.60;86.40
40932;DHT22;36257;46.052;12.540;2022-10-31T08:28:05;20.70;86.30
40932;DHT22;36257;46.052;12.540;2022-10-31T08:30:33;20.80;86.10
40932;DHT22;36257;46.052;12.540;2022-10-31T08:33:14;21.00;84.90
40932;DHT22;36257;46.052;12.540;2022-10-31T08:35:40;21.10;84.70
40932;DHT22;36257;46.052;12.540;2022-10-31T08:38:07;21.30;84.60
40932;DHT22;36257;46.052;12.540;2022-10-31T08:40:33;21.40;84.60
40932;DHT22;36257;46.052;12.540;2022-10-31T08:43:12;21.40;82.50
40932;DHT22;36257;46.052;12.540;2022-10-31T08:45:41;21.50;84.00
40932;DHT22;36257;46.052;12.540;2022-10-31T08:48:16;21.90;83.00
40932;DHT22;36257;46.052;12.540;2022-10-31T08:50:43;22.10;82.10
40932;DHT22;36257;46.052;12.540;2022-10-31T08:53:13;22.30;82.10
40932;DHT22;36257;46.052;12.540;2022-10-31T08:55:40;22.50;81.30
40932;DHT22;36257;46.052;12.540;2022-10-31T08:58:09;22.70;81.50
40932;DHT22;36257;46.052;12.540;2022-10-31T09:00:35;22.90;79.00
40932;DHT22;36257;46.052;12.540;2022-10-31T09:03:03;23.00;78.70
40932;DHT22;36257;46.052;12.540;2022-10-31T09:05:30;23.00;78.50
40932;DHT22;36257;46.052;12.540;2022-10-31T09:07:57;23.10;78.00
40932;DHT22;36257;46.052;12.540;2022-10-31T09:10:23;23.20;78.80
40932;DHT22;36257;46.052;12.540;2022-10-31T09:12:58;23.00;77.90
40932;DHT22;36257;46.052;12.540;2022-10-31T09:15:24;23.00;77.90
40932;DHT22;36257;46.052;12.540;2022-10-31T09:17:50;23.10;78.30
40932;DHT22;36257;46.052;12.540;2022-10-31T09:20:19;23.20;79.30
40932;DHT22;36257;46.052;12.540;2022-10-31T09:22:45;23.40;79.50
40932;DHT22;36257;46.052;12.540;2022-10-31T09:25:10;23.60;77.40
40932;DHT22;36257;46.052;12.540;2022-10-31T09:27:36;23.50;76.90
40932;DHT22;36257;46.052;12.540;2022-10-31T09:30:03;23.40;77.70
40932;DHT22;36257;46.052;12.540;2022-10-31T09:32:29;23.50;78.30
40932;DHT22;36257;46.052;12.540;2022-10-31T09:34:54;23.40;78.80
40932;DHT22;36257;46.052;12.540;2022-10-31T09:37:20;23.50;79.70
40932;DHT22;36257;46.052;12.540;2022-10-31T09:39:46;23.60;79.50
40932;DHT22;36257;46.052;12.540;2022-10-31T09:45:11;23.90;78.60
40932;DHT22;36257;46.052;12.540;2022-10-31T09:50:46;24.20;78.50
40932;DHT22;36257;46.052;12.540;2022-10-31T09:53:39;24.30;78.40
40932;DHT22;36257;46.052;12.540;2022-10-31T09:56:12;24.20;76.60
40932;DHT22;36257;46.052;12.540;2022-10-31T09:58:47;24.00;77.90
40932;DHT22;36257;46.052;12.540;2022-10-31T10:03:57;24.40;77.20
40932;DHT22;36257;46.052;12.540;2022-10-31T10:06:25;24.60;76.50
40932;DHT22;36257;46.052;12.540;2022-10-31T10:08:52;24.70;76.90
40932;DHT22;36257;46.052;12.540;2022-10-31T10:30:26;26.50;72.40
40932;DHT22;36257;46.052;12.540;2022-10-31T10:33:00;26.40;71.90
40932;DHT22;36257;46.052;12.540;2022-10-31T10:35:36;26.40;72.00
40932;DHT22;36257;46.052;12.540;2022-10-31T10:40:29;26.40;71.60
40932;DHT22;36257;46.052;12.540;2022-10-31T10:43:39;26.60;71.80
40932;DHT22;36257;46.052;12.540;2022-10-31T10:52:00;26.80;71.00
40932;DHT22;36257;46.052;12.540;2022-10-31T10:54:39;27.10;67.60
40932;DHT22;36257;46.052;12.540;2022-10-31T10:59:35;26.80;66.90
40932;DHT22;36257;46.052;12.540;2022-10-31T11:02:03;27.00;68.40
40932;DHT22;36257;46.052;12.540;2022-10-31T11:04:34;27.20;68.90
40932;DHT22;36257;46.052;12.540;2022-10-31T11:07:04;27.50;69.10
40932;DHT22;36257;46.052;12.540;2022-10-31T11:09:30;27.80;70.80
40932;DHT22;36257;46.052;12.540;2022-10-31T11:11:56;28.00;67.60
40932;DHT22;36257;46.052;12.540;2022-10-31T11:14:23;28.20;66.60
40932;DHT22;36257;46.052;12.540;2022-10-31T11:17:06;28.30;67.20
40932;DHT22;36257;46.052;12.540;2022-10-31T11:19:34;28.50;65.90
40932;DHT22;36257;46.052;12.540;2022-10-31T11:22:08;28.40;65.40
40932;DHT22;36257;46.052;12.540;2022-10-31T11:24:40;28.30;65.90
40932;DHT22;36257;46.052;12.540;2022-10-31T11:29:38;28.50;67.00
40932;DHT22;36257;46.052;12.540;2022-10-31T11:32:04;28.80;67.00
40932;DHT22;36257;46.052;12.540;2022-10-31T11:34:36;28.90;67.00
40932;DHT22;36257;46.052;12.540;2022-10-31T11:37:16;29.00;67.40
40932;DHT22;36257;46.052;12.540;2022-10-31T11:39:53;29.00;65.90
40932;DHT22;36257;46.052;12.540;2022-10-31T11:42:22;29.00;65.80
40932;DHT22;36257;46.052;12.540;2022-10-31T11:44:48;29.10;65.50
40932;DHT22;36257;46.052;12.540;2022-10-31T11:47:16;28.90;65.50
40932;DHT22;36257;46.052;12.540;2022-10-31T11:49:45;28.80;66.10
40932;DHT22;36257;46.052;12.540;2022-10-31T11:52:22;28.60;65.60
40932;DHT22;36257;46.052;12.540;2022-10-31T11:57:32;28.40;65.60
40932;DHT22;36257;46.052;12.540;2022-10-31T12:00:00;28.30;65.80
40932;DHT22;36257;46.052;12.540;2022-10-31T12:02:26;28.30;66.00
40932;DHT22;36257;46.052;12.540;2022-10-31T12:07:28;28.80;65.40
40932;DHT22;36257;46.052;12.540;2022-10-31T12:09:54;29.00;65.80
40932;DHT22;36257;46.052;12.540;2022-10-31T12:12:56;29.30;63.40
40932;DHT22;36257;46.052;12.540;2022-10-31T12:15:30;29.30;62.70
40932;DHT22;36257;46.052;12.540;2022-10-31T12:18:08;29.50;64.20
40932;DHT22;36257;46.052;12.540;2022-10-31T12:24:48;29.60;64.60
40932;DHT22;36257;46.052;12.540;2022-10-31T12:29:28;29.90;63.20
40932;DHT22;36257;46.052;12.540;2022-10-31T12:43:03;29.90;61.60
40932;DHT22;36257;46.052;12.540;2022-10-31T12:45:49;29.90;62.50
40932;DHT22;36257;46.052;12.540;2022-10-31T12:49:22;29.90;60.70
40932;DHT22;36257;46.052;12.540;2022-10-31T12:51:48;29.80;61.90
40932;DHT22;36257;46.052;12.540;2022-10-31T12:57:36;29.70;62.00
40932;DHT22;36257;46.052;12.540;2022-10-31T13:00:17;29.70;63.50
40932;DHT22;36257;46.052;12.540;2022-10-31T13:03:00;29.70;62.90
40932;DHT22;36257;46.052;12.540;2022-10-31T13:05:36;29.80;63.10
40932;DHT22;36257;46.052;12.540;2022-10-31T13:08:09;29.80;64.50
40932;DHT22;36257;46.052;12.540;2022-10-31T13:10:45;29.80;60.90
40932;DHT22;36257;46.052;12.540;2022-10-31T13:13:18;29.60;64.60
40932;DHT22;36257;46.052;12.540;2022-10-31T13:15:58;29.40;62.70
40932;DHT22;36257;46.052;12.540;2022-10-31T13:20:59;29.00;64.20
40932;DHT22;36257;46.052;12.540;2022-10-31T13:23:30;29.00;64.10
40932;DHT22;36257;46.052;12.540;2022-10-31T13:25:59;28.90;64.40
40932;DHT22;36257;46.052;12.540;2022-10-31T13:28:46;28.80;65.00
40932;DHT22;36257;46.052;12.540;2022-10-31T13:31:12;28.70;65.60
40932;DHT22;36257;46.052;12.540;2022-10-31T13:36:41;28.70;66.30
40932;DHT22;36257;46.052;12.540;2022-10-31T13:41:54;28.30;66.00
40932;DHT22;36257;46.052;12.540;2022-10-31T13:44:27;28.10;66.40
40932;DHT22;36257;46.052;12.540;2022-10-31T13:46:55;27.90;68.00
40932;DHT22;36257;46.052;12.540;2022-10-31T13:52:23;27.60;68.70
40932;DHT22;36257;46.052;12.540;2022-10-31T13:54:51;27.50;67.90
40932;DHT22;36257;46.052;12.540;2022-10-31T13:57:31;27.20;67.60
40932;DHT22;36257;46.052;12.540;2022-10-31T14:02:53;26.70;69.50
40932;DHT22;36257;46.052;12.540;2022-10-31T14:07:56;26.40;72.40
40932;DHT22;36257;46.052;12.540;2022-10-31T14:10:26;26.20;72.40
40932;DHT22;36257;46.052;12.540;2022-10-31T14:13:05;26.00;73.90
40932;DHT22;36257;46.052;12.540;2022-10-31T14:15:31;25.90;73.10
40932;DHT22;36257;46.052;12.540;2022-10-31T14:18:00;25.80;73.60
40932;DHT22;36257;46.052;12.540;2022-10-31T14:22:51;25.50;73.90
40932;DHT22;36257;46.052;12.540;2022-10-31T14:25:33;25.50;74.00
40932;DHT22;36257;46.052;12.540;2022-10-31T14:28:01;25.40;74.40
40932;DHT22;36257;46.052;12.540;2022-10-31T14:30:29;25.30;75.10
40932;DHT22;36257;46.052;12.540;2022-10-31T14:33:16;25.20;75.40
40932;DHT22;36257;46.052;12.540;2022-10-31T14:35:54;25.20;74.80
40932;DHT22;36257;46.052;12.540;2022-10-31T14:52:17;24.30;77.40
40932;DHT22;36257;46.052;12.540;2022-10-31T14:54:48;24.20;78.10
40932;DHT22;36257;46.052;12.540;2022-10-31T14:57:33;24.10;78.90
40932;DHT22;36257;46.052;12.540;2022-10-31T15:00:07;24.00;79.60
40932;DHT22;36257;46.052;12.540;2022-10-31T15:03:02;24.00;79.80
40932;DHT22;36257;46.052;12.540;2022-10-31T15:05:32;23.90;78.90
40932;DHT22;36257;46.052;12.540;2022-10-31T15:07:59;23.80;78.50
40932;DHT22;36257;46.052;12.540;2022-10-31T15:10:30;23.80;78.80
40932;DHT22;36257;46.052;12.540;2022-10-31T15:13:09;23.70;80.40
40932;DHT22;36257;46.052;12.540;2022-10-31T15:15:36;23.60;81.20
40932;DHT22;36257;46.052;12.540;2022-10-31T15:18:04;23.50;81.20
40932;DHT22;36257;46.052;12.540;2022-10-31T15:20:43;23.40;82.00
40932;DHT22;36257;46.052;12.540;2022-10-31T15:23:14;23.30;82.20
40932;DHT22;36257;46.052;12.540;2022-10-31T15:25:41;23.20;82.30
40932;DHT22;36257;46.052;12.540;2022-10-31T15:28:15;23.10;82.60
40932;DHT22;36257;46.052;12.540;2022-10-31T15:30:50;23.00;83.00
40932;DHT22;36257;46.052;12.540;2022-10-31T15:33:27;22.90;83.40
40932;DHT22;36257;46.052;12.540;2022-10-31T15:36:01;22.70;83.50
40932;DHT22;36257;46.052;12.540;2022-10-31T15:38:28;22.50;84.20
40932;DHT22;36257;46.052;12.540;2022-10-31T15:41:04;22.20;85.50
40932;DHT22;36257;46.052;12.540;2022-10-31T15:43:34;22.00;86.30
40932;DHT22;36257;46.052;12.540;2022-10-31T15:46:03;21.80;87.20
40932;DHT22;36257;46.052;12.540;2022-10-31T15:48:29;21.70;87.80
40932;DHT22;36257;46.052;12.540;2022-10-31T15:51:00;21.50;88.50
40932;DHT22;36257;46.052;12.540;2022-10-31T15:53:52;21.30;89.30
40932;DHT22;36257;46.052;12.540;2022-10-31T15:56:22;21.20;89.70
40932;DHT22;36257;46.052;12.540;2022-10-31T15:58:49;21.10;90.10
40932;DHT22;36257;46.052;12.540;2022-10-31T16:01:25;20.90;90.50
40932;DHT22;36257;46.052;12.540;2022-10-31T16:07:13;20.50;91.50
40932;DHT22;36257;46.052;12.540;2022-10-31T16:10:21;20.40;91.90
40932;DHT22;36257;46.052;12.540;2022-10-31T16:12:48;20.20;92.20
40932;DHT22;36257;46.052;12.540;2022-10-31T16:15:16;20.10;92.40
40932;DHT22;36257;46.052;12.540;2022-10-31T16:17:45;20.00;92.40
40932;DHT22;36257;46.052;12.540;2022-10-31T16:20:27;20.00;92.60
40932;DHT22;36257;46.052;12.540;2022-10-31T16:22:54;19.90;92.90
40932;DHT22;36257;46.052;12.540;2022-10-31T16:27:57;19.80;93.10
40932;DHT22;36257;46.052;12.540;2022-10-31T16:30:45;19.80;92.90
40932;DHT22;36257;46.052;12.540;2022-10-31T16:33:31;19.70;92.80
40932;DHT22;36257;46.052;12.540;2022-10-31T16:38:57;19.60;92.80
40932;DHT22;36257;46.052;12.540;2022-10-31T16:41:24;19.50;92.60
40932;DHT22;36257;46.052;12.540;2022-10-31T16:43:51;19.40;92.70
40932;DHT22;36257;46.052;12.540;2022-10-31T16:46:27;19.30;92.80
40932;DHT22;36257;46.052;12.540;2022-10-31T16:48:54;19.20;92.70
40932;DHT22;36257;46.052;12.540;2022-10-31T16:51:20;19.10;92.40
40932;DHT22;36257;46.052;12.540;2022-10-31T16:53:46;19.10;92.10
40932;DHT22;36257;46.052;12.540;2022-10-31T16:56:23;19.00;91.90
40932;DHT22;36257;46.052;12.540;2022-10-31T16:58:51;18.80;92.20
40932;DHT22;36257;46.052;12.540;2022-10-31T17:01:17;18.70;92.20
40932;DHT22;36257;46.052;12.540;2022-10-31T17:03:43;18.60;92.60
40932;DHT22;36257;46.052;12.540;2022-10-31T17:06:13;18.40;92.80
40932;DHT22;36257;46.052;12.540;2022-10-31T17:08:39;18.40;93.00
40932;DHT22;36257;46.052;12.540;2022-10-31T17:11:05;18.30;93.00
40932;DHT22;36257;46.052;12.540;2022-10-31T17:13:34;18.30;92.80
40932;DHT22;36257;46.052;12.540;2022-10-31T17:16:01;18.20;92.70
40932;DHT22;36257;46.052;12.540;2022-10-31T17:18:28;18.20;92.70
40932;DHT22;36257;46.052;12.540;2022-10-31T17:21:04;18.20;92.50
40932;DHT22;36257;46.052;12.540;2022-10-31T17:23:31;18.10;92.20
40932;DHT22;36257;46.052;12.540;2022-10-31T17:25:58;18.10;92.00
40932;DHT22;36257;46.052;12.540;2022-10-31T17:28:24;18.00;91.70
40932;DHT22;36257;46.052;12.540;2022-10-31T17:30:56;18.00;91.50
40932;DHT22;36257;46.052;12.540;2022-10-31T17:33:24;18.00;91.30
40932;DHT22;36257;46.052;12.540;2022-10-31T17:35:50;17.90;91.10
40932;DHT22;36257;46.052;12.540;2022-10-31T17:38:16;17.90;91.00
40932;DHT22;36257;46.052;12.540;2022-10-31T17:40:43;17.80;91.20
40932;DHT22;36257;46.052;12.540;2022-10-31T17:43:09;17.90;91.20
40932;DHT22;36257;46.052;12.540;2022-10-31T17:45:38;17.80;91.50
40932;DHT22;36257;46.052;12.540;2022-10-31T17:48:05;17.70;91.60
40932;DHT22;36257;46.052;12.540;2022-10-31T17:50:31;17.60;91.60
40932;DHT22;36257;46.052;12.540;2022-10-31T17:52:57;17.60;91.80
40932;DHT22;36257;46.052;12.540;2022-10-31T17:55:23;17.60;91.70
40932;DHT22;36257;46.052;12.540;2022-10-31T17:57:49;17.60;91.30
40932;DHT22;36257;46.052;12.540;2022-10-31T18:00:17;17.60;91.20